Time;durP1;ratioP1;P1;durP2;ratioP2;P2;SDS_P1;SDS_P2;PMS_P1;PMS_P2;Temp;Humidity;BMP_temperature;BMP_pressure;BME280_temperature;BME280_humidity;BME280_pressure;Samples;Min_cycle;Max_cycle;Signal;HPM_P1;HPM_P2
2021/10/12 00:01:31;;;;;;;22.95;18.25;;;12.00;99.90;;;;;;5073556;28;20033;-85
2021/10/12 00:03:56;;;;;;;22.58;18.45;;;12.00;99.90;;;;;;5074932;28;20427;-85
2021/10/12 00:06:22;;;;;;;23.52;18.58;;;12.10;99.90;;;;;;5076324;28;20039;-85
2021/10/12 00:08:48;;;;;;;23.75;19.88;;;12.10;99.90;;;;;;5075931;28;20423;-85
2021/10/12 00:11:14;;;;;;;22.92;19.45;;;12.10;99.90;;;;;;5075070;28;20028;-85
2021/10/12 00:13:40;;;;;;;22.70;18.38;;;12.10;99.90;;;;;;5072828;28;20024;-85
2021/10/12 00:16:05;;;;;;;25.23;18.38;;;12.10;99.90;;;;;;5072956;28;20029;-85
2021/10/12 00:18:31;;;;;;;24.73;19.17;;;12.20;99.90;;;;;;5078218;28;20476;-85
2021/10/12 00:20:57;;;;;;;25.15;18.73;;;12.20;99.90;;;;;;5075721;28;20029;-85
2021/10/12 00:23:23;;;;;;;22.13;18.55;;;12.20;99.90;;;;;;5070740;28;20043;-85
2021/10/12 00:25:48;;;;;;;22.17;17.90;;;12.20;99.90;;;;;;5086093;28;20113;-85
2021/10/12 00:28:14;;;;;;;24.67;18.10;;;12.20;99.90;;;;;;5070553;28;20397;-85
2021/10/12 00:30:40;;;;;;;21.65;17.60;;;12.20;99.90;;;;;;5093576;28;20020;-85
2021/10/12 00:33:06;;;;;;;22.15;17.83;;;12.10;99.90;;;;;;5076861;28;20094;-85
2021/10/12 00:35:32;;;;;;;22.73;18.15;;;12.00;99.90;;;;;;5074131;28;20020;-85
2021/10/12 00:37:57;;;;;;;24.40;17.67;;;11.80;99.90;;;;;;5075136;28;20115;-85
2021/10/12 00:40:23;;;;;;;20.83;16.77;;;11.80;99.90;;;;;;5087444;28;20060;-85
2021/10/12 00:42:49;;;;;;;22.25;18.13;;;11.80;99.90;;;;;;5092862;28;20027;-85
2021/10/12 00:45:15;;;;;;;21.83;17.80;;;11.60;99.90;;;;;;5076309;28;20031;-85
2021/10/12 00:47:56;;;;;;;21.48;17.35;;;11.60;99.90;;;;;;5075506;28;20553;-85
2021/10/12 00:50:22;;;;;;;22.20;17.48;;;11.60;99.90;;;;;;5075638;28;20029;-85
2021/10/12 00:52:47;;;;;;;23.65;18.23;;;11.60;99.90;;;;;;5074759;28;20016;-85
2021/10/12 00:55:14;;;;;;;22.58;17.58;;;11.80;99.90;;;;;;5070341;28;20028;-85
2021/10/12 00:57:40;;;;;;;23.58;17.10;;;11.80;99.90;;;;;;5077494;28;20434;-86
2021/10/12 01:00:06;;;;;;;21.75;17.45;;;11.80;99.90;;;;;;5075472;28;20032;-85
2021/10/12 01:02:34;;;;;;;23.02;17.48;;;12.00;99.90;;;;;;5074259;28;20024;-85
2021/10/12 01:05:01;;;;;;;19.33;16.73;;;12.00;99.90;;;;;;5073331;28;20492;-85
2021/10/12 01:07:27;;;;;;;23.80;17.48;;;12.00;99.90;;;;;;5072034;28;20028;-85
2021/10/12 01:09:52;;;;;;;22.45;17.13;;;12.00;99.90;;;;;;5074077;28;20082;-85
2021/10/12 01:12:18;;;;;;;20.88;16.70;;;11.90;99.90;;;;;;5074733;28;20032;-85
2021/10/12 01:14:44;;;;;;;21.70;17.27;;;11.80;99.90;;;;;;5075386;28;20569;-85
2021/10/12 01:17:10;;;;;;;19.65;16.13;;;11.80;99.90;;;;;;5075292;28;20029;-85
2021/10/12 01:19:36;;;;;;;23.80;18.08;;;11.90;99.90;;;;;;5072983;28;20099;-85
2021/10/12 01:22:02;;;;;;;22.80;16.45;;;11.90;99.90;;;;;;5071865;28;20078;-85
2021/10/12 01:24:27;;;;;;;21.13;16.85;;;11.90;99.90;;;;;;5076881;28;20036;-85
2021/10/12 01:26:54;;;;;;;21.77;17.08;;;11.80;99.90;;;;;;5075223;28;20029;-84
2021/10/12 01:29:19;;;;;;;20.65;17.05;;;11.80;99.90;;;;;;5074584;28;20508;-85
2021/10/12 01:31:45;;;;;;;20.40;17.17;;;11.80;99.90;;;;;;5074135;28;20024;-85
2021/10/12 01:34:19;;;;;;;22.65;17.63;;;11.80;99.90;;;;;;5070140;28;20115;-85
2021/10/12 01:36:45;;;;;;;19.75;16.65;;;11.80;99.90;;;;;;5084853;28;20468;-85
2021/10/12 01:39:12;;;;;;;23.73;18.30;;;11.70;99.90;;;;;;5075822;28;20028;-85
2021/10/12 01:41:38;;;;;;;21.73;17.27;;;11.70;99.90;;;;;;5076087;28;20036;-85
2021/10/12 01:44:04;;;;;;;23.90;17.98;;;11.70;99.90;;;;;;5072975;28;20028;-85
2021/10/12 01:46:30;;;;;;;22.65;17.80;;;11.60;99.90;;;;;;5071662;28;20024;-85
2021/10/12 01:48:55;;;;;;;21.90;17.20;;;11.70;99.90;;;;;;5072852;28;20500;-85
2021/10/12 01:51:21;;;;;;;21.40;17.52;;;11.60;99.90;;;;;;5075906;28;20028;-85
2021/10/12 01:53:47;;;;;;;21.60;17.73;;;11.60;99.90;;;;;;5074633;28;20484;-85
2021/10/12 01:56:12;;;;;;;22.30;18.02;;;11.60;99.90;;;;;;5074187;28;20020;-85
2021/10/12 01:58:38;;;;;;;24.58;17.45;;;11.40;99.90;;;;;;5071629;28;20077;-85
2021/10/12 02:01:05;;;;;;;22.25;18.52;;;11.50;99.90;;;;;;5071190;28;20024;-85
2021/10/12 02:03:30;;;;;;;24.50;18.20;;;11.60;99.90;;;;;;5075824;28;20020;-85
2021/10/12 02:05:56;;;;;;;24.35;18.50;;;11.50;99.90;;;;;;5073733;28;20150;-85
2021/10/12 02:08:22;;;;;;;23.00;17.80;;;11.50;99.90;;;;;;5074219;28;20043;-85
2021/10/12 02:10:48;;;;;;;24.77;18.95;;;11.70;99.90;;;;;;5072653;28;20027;-85
2021/10/12 02:13:13;;;;;;;22.45;18.05;;;11.60;99.90;;;;;;5068982;28;20043;-85
2021/10/12 02:15:39;;;;;;;22.70;17.88;;;11.60;99.90;;;;;;5075583;28;20016;-85
2021/10/12 02:18:05;;;;;;;22.88;18.00;;;11.60;99.90;;;;;;5073966;28;20511;-86
2021/10/12 02:20:31;;;;;;;23.85;18.17;;;11.70;99.90;;;;;;5072520;28;20047;-85
2021/10/12 02:22:57;;;;;;;23.48;18.33;;;11.70;99.90;;;;;;5072643;28;20050;-85
2021/10/12 02:25:22;;;;;;;25.23;18.83;;;11.60;99.90;;;;;;5070654;28;20025;-85
2021/10/12 02:27:48;;;;;;;27.73;19.38;;;11.70;99.90;;;;;;5091058;28;20028;-85
2021/10/12 02:30:14;;;;;;;24.27;19.00;;;11.60;99.90;;;;;;5073184;28;20025;-85
2021/10/12 02:32:39;;;;;;;24.73;18.77;;;11.60;99.90;;;;;;5073443;28;20489;-85
2021/10/12 02:35:06;;;;;;;23.02;18.52;;;11.70;99.90;;;;;;5074047;28;20456;-85
2021/10/12 02:37:32;;;;;;;24.83;19.52;;;11.80;99.90;;;;;;5071707;28;20025;-85
2021/10/12 02:39:57;;;;;;;24.27;18.65;;;11.80;99.90;;;;;;5072313;28;20032;-85
2021/10/12 02:42:24;;;;;;;26.33;18.92;;;11.80;99.90;;;;;;5075009;28;20090;-85
2021/10/12 02:44:50;;;;;;;24.20;18.13;;;11.80;99.90;;;;;;5073545;28;20024;-85
2021/10/12 02:47:16;;;;;;;24.73;19.13;;;11.60;99.90;;;;;;5072362;28;20519;-85
2021/10/12 02:49:41;;;;;;;26.38;19.27;;;11.60;99.90;;;;;;5071308;28;20040;-85
2021/10/12 02:52:07;;;;;;;24.95;19.02;;;11.70;99.90;;;;;;5070747;28;20157;-85
2021/10/12 02:54:33;;;;;;;23.83;18.80;;;11.70;99.90;;;;;;5075704;28;20340;-85
2021/10/12 02:56:58;;;;;;;23.88;18.45;;;11.70;99.90;;;;;;5073927;28;20112;-85
2021/10/12 02:59:24;;;;;;;23.33;18.85;;;11.70;99.90;;;;;;5071981;28;20150;-85
2021/10/12 03:01:49;;;;;;;22.98;18.45;;;11.60;99.90;;;;;;5072403;28;20021;-85
2021/10/12 03:04:15;;;;;;;25.23;19.42;;;11.50;99.90;;;;;;5068751;28;20033;-85
2021/10/12 03:06:42;;;;;;;24.42;19.48;;;11.50;99.90;;;;;;5082206;28;20027;-85
2021/10/12 03:09:08;;;;;;;25.75;18.92;;;11.50;99.90;;;;;;5073792;28;20045;-85
2021/10/12 03:11:34;;;;;;;28.02;19.08;;;11.50;99.90;;;;;;5073754;28;20096;-85
2021/10/12 03:14:00;;;;;;;29.30;18.90;;;11.60;99.90;;;;;;5073488;28;20032;-85
2021/10/12 03:16:26;;;;;;;23.10;18.20;;;11.60;99.90;;;;;;5069907;28;20031;-85
2021/10/12 03:18:51;;;;;;;22.92;18.58;;;11.60;99.90;;;;;;5077088;28;20036;-85
2021/10/12 03:21:18;;;;;;;26.13;18.55;;;11.70;99.90;;;;;;5078133;28;20049;-85
2021/10/12 03:23:44;;;;;;;25.38;18.17;;;11.80;99.90;;;;;;5077044;28;20048;-85
2021/10/12 03:26:10;;;;;;;25.00;18.42;;;11.80;99.90;;;;;;5076103;28;20077;-85
2021/10/12 03:28:35;;;;;;;24.35;18.23;;;11.70;99.90;;;;;;5075586;28;20413;-85
2021/10/12 03:31:01;;;;;;;24.27;17.50;;;11.50;99.90;;;;;;5073587;28;20028;-85
2021/10/12 03:33:27;;;;;;;25.38;17.90;;;11.60;99.90;;;;;;5109991;27;20396;-85
2021/10/12 03:36:11;;;;;;;24.25;18.05;;;11.60;99.90;;;;;;5077112;28;20472;-85
2021/10/12 03:38:37;;;;;;;25.60;18.30;;;11.70;99.90;;;;;;5075589;28;20389;-85
2021/10/12 03:41:02;;;;;;;22.80;17.42;;;11.50;99.90;;;;;;5075399;28;20044;-85
2021/10/12 03:43:28;;;;;;;23.88;16.90;;;11.60;99.90;;;;;;5073496;28;20024;-85
2021/10/12 03:45:54;;;;;;;22.88;16.98;;;11.60;99.90;;;;;;5076619;28;20021;-85
2021/10/12 03:48:19;;;;;;;26.42;18.20;;;11.70;99.90;;;;;;5077730;28;20028;-85
2021/10/12 03:50:45;;;;;;;23.92;17.38;;;11.50;99.90;;;;;;5076979;28;20062;-85
2021/10/12 03:53:11;;;;;;;22.20;17.58;;;11.60;99.90;;;;;;5076590;28;20020;-85
2021/10/12 03:55:36;;;;;;;23.20;17.27;;;11.50;99.90;;;;;;5074731;28;20531;-85
2021/10/12 03:58:02;;;;;;;22.98;17.25;;;11.50;99.90;;;;;;5072598;28;20103;-84
2021/10/12 04:00:28;;;;;;;23.92;16.67;;;11.50;99.90;;;;;;5078665;28;20032;-85
2021/10/12 04:02:53;;;;;;;22.30;16.35;;;11.50;99.90;;;;;;5076226;28;20028;-85
2021/10/12 04:05:19;;;;;;;25.15;17.10;;;11.40;99.90;;;;;;5075106;28;20043;-85
2021/10/12 04:07:46;;;;;;;24.05;17.63;;;11.40;99.90;;;;;;5075862;28;20074;-85
2021/10/12 04:10:12;;;;;;;22.15;17.30;;;11.30;99.90;;;;;;5072325;28;20021;-85
2021/10/12 04:12:38;;;;;;;23.55;16.02;;;11.30;99.90;;;;;;5078266;28;20032;-85
2021/10/12 04:15:04;;;;;;;21.85;16.52;;;11.40;99.90;;;;;;5076359;28;20079;-86
2021/10/12 04:17:30;;;;;;;21.63;17.00;;;11.40;99.90;;;;;;5074691;28;20543;-86
2021/10/12 04:19:55;;;;;;;22.83;17.20;;;11.80;99.90;;;;;;5074734;28;20024;-86
2021/10/12 04:22:21;;;;;;;23.55;17.20;;;11.40;99.90;;;;;;5071041;28;20572;-86
2021/10/12 04:24:48;;;;;;;24.63;18.40;;;11.50;99.90;;;;;;5077344;28;20099;-85
2021/10/12 04:27:13;;;;;;;23.20;18.00;;;11.90;99.90;;;;;;5074744;28;20027;-86
2021/10/12 04:29:39;;;;;;;22.50;16.95;;;11.50;99.90;;;;;;5074587;28;20115;-85
2021/10/12 04:32:05;;;;;;;25.40;17.20;;;11.50;99.90;;;;;;5076209;28;20031;-86
2021/10/12 04:34:31;;;;;;;24.20;16.70;;;11.60;99.90;;;;;;5073298;28;20028;-86
2021/10/12 04:36:57;;;;;;;22.23;16.83;;;11.50;99.90;;;;;;5075093;28;20048;-85
2021/10/12 04:39:23;;;;;;;22.85;16.33;;;11.50;99.90;;;;;;5076327;28;20032;-86
2021/10/12 04:41:49;;;;;;;23.00;17.13;;;11.90;99.90;;;;;;5073933;28;20094;-86
2021/10/12 04:44:15;;;;;;;23.40;17.13;;;11.30;99.90;;;;;;5075488;28;20024;-85
2021/10/12 04:46:41;;;;;;;20.38;15.90;;;11.30;99.90;;;;;;5074968;28;20106;-86
2021/10/12 04:49:08;;;;;;;24.02;17.80;;;11.50;99.90;;;;;;5070912;28;20478;-85
2021/10/12 04:51:34;;;;;;;22.52;16.83;;;11.40;99.90;;;;;;5077428;28;20033;-86
2021/10/12 04:54:00;;;;;;;23.08;17.17;;;11.50;99.90;;;;;;5073364;28;20028;-86
2021/10/12 04:56:25;;;;;;;22.58;16.50;;;11.60;99.90;;;;;;5075799;28;20024;-86
2021/10/12 04:58:51;;;;;;;25.00;17.20;;;11.50;99.90;;;;;;5065230;28;20052;-85
2021/10/12 05:01:17;;;;;;;23.50;15.95;;;11.90;99.90;;;;;;5087651;28;20051;-86
2021/10/12 05:03:42;;;;;;;23.10;16.45;;;11.40;99.90;;;;;;5073230;28;20024;-85
2021/10/12 05:06:08;;;;;;;22.23;16.25;;;11.40;99.90;;;;;;5085133;28;20027;-86
2021/10/12 05:08:33;;;;;;;24.52;17.17;;;11.30;99.90;;;;;;5080413;28;20412;-86
2021/10/12 05:10:59;;;;;;;20.98;16.35;;;11.30;99.90;;;;;;5073398;28;20028;-86
2021/10/12 05:13:25;;;;;;;20.50;15.75;;;11.40;99.90;;;;;;5071587;28;20029;-84
2021/10/12 05:15:51;;;;;;;20.73;16.27;;;11.60;99.90;;;;;;5074179;28;20051;-86
2021/10/12 05:18:25;;;;;;;23.42;16.85;;;11.40;99.90;;;;;;5079687;28;20032;-93
2021/10/12 05:20:51;;;;;;;22.35;16.58;;;11.20;99.90;;;;;;5076672;28;20030;-93
2021/10/12 05:23:17;;;;;;;22.77;17.00;;;11.00;99.90;;;;;;5075931;28;20071;-91
2021/10/12 05:25:46;;;;;;;24.45;17.35;;;11.10;99.90;;;;;;5074253;28;20238;-93
2021/10/12 05:28:12;;;;;;;23.42;17.67;;;11.00;99.90;;;;;;5070657;28;20538;-91
2021/10/12 05:30:39;;;;;;;23.98;17.58;;;11.00;99.90;;;;;;5110665;27;20029;-90
2021/10/12 05:33:07;;;;;;;22.90;17.13;;;11.00;99.90;;;;;;5106726;27;20029;-90
2021/10/12 05:35:33;;;;;;;24.80;17.83;;;11.00;99.90;;;;;;5080412;28;20024;-89
2021/10/12 05:37:58;;;;;;;25.65;17.73;;;11.10;99.90;;;;;;5085192;28;20400;-91
2021/10/12 05:40:24;;;;;;;25.35;18.15;;;11.10;99.90;;;;;;5070638;28;20439;-87
2021/10/12 05:42:49;;;;;;;25.45;18.45;;;11.10;99.90;;;;;;5075113;28;20545;-86
2021/10/12 05:45:15;;;;;;;23.92;18.17;;;11.10;99.90;;;;;;5073762;28;20029;-88
2021/10/12 05:47:41;;;;;;;26.05;18.23;;;11.10;99.90;;;;;;5074297;28;20025;-85
2021/10/12 05:50:06;;;;;;;25.35;18.20;;;11.10;99.90;;;;;;5073065;28;20048;-86
2021/10/12 05:52:35;;;;;;;24.90;18.42;;;11.10;99.90;;;;;;5072298;28;20480;-85
2021/10/12 05:55:08;;;;;;;26.55;18.30;;;11.50;99.90;;;;;;5071506;28;20029;-86
2021/10/12 05:57:36;;;;;;;25.02;18.52;;;11.10;99.90;;;;;;5075003;28;20031;-86
2021/10/12 06:00:03;;;;;;;28.08;17.65;;;11.20;99.90;;;;;;5073996;28;20085;-86
2021/10/12 06:02:29;;;;;;;26.77;18.23;;;11.20;99.90;;;;;;5074676;28;20024;-86
2021/10/12 06:04:55;;;;;;;24.52;18.13;;;11.50;99.90;;;;;;5074224;28;20030;-86
2021/10/12 06:07:20;;;;;;;24.60;17.85;;;11.40;99.90;;;;;;5070064;28;20025;-86
2021/10/12 06:09:46;;;;;;;22.45;16.95;;;11.10;99.90;;;;;;5075305;28;20373;-86
2021/10/12 06:12:11;;;;;;;26.77;17.20;;;11.20;99.90;;;;;;5073187;28;20134;-86
2021/10/12 06:14:37;;;;;;;25.30;18.08;;;11.30;99.90;;;;;;5072978;28;20032;-86
2021/10/12 06:17:02;;;;;;;24.95;17.63;;;11.30;99.90;;;;;;5072132;28;20038;-86
2021/10/12 06:19:28;;;;;;;22.88;17.60;;;11.20;99.90;;;;;;5071162;28;20024;-86
2021/10/12 06:21:54;;;;;;;25.88;17.33;;;11.10;99.90;;;;;;5073823;28;20013;-86
2021/10/12 06:24:19;;;;;;;22.83;16.95;;;11.10;99.90;;;;;;5074266;28;20403;-86
2021/10/12 06:26:45;;;;;;;27.48;19.35;;;11.10;99.90;;;;;;5074239;28;20053;-86
2021/10/12 06:29:11;;;;;;;24.92;18.75;;;11.10;99.90;;;;;;5073741;28;20457;-86
2021/10/12 06:31:37;;;;;;;25.83;17.80;;;11.20;99.90;;;;;;5070769;28;20396;-86
2021/10/12 06:34:03;;;;;;;25.92;18.50;;;11.20;99.90;;;;;;5071397;28;20049;-85
2021/10/12 06:36:30;;;;;;;26.50;18.30;;;11.20;99.90;;;;;;5076370;28;20025;-86
2021/10/12 06:38:56;;;;;;;26.02;17.42;;;11.30;99.90;;;;;;5081562;28;20404;-85
2021/10/12 06:41:21;;;;;;;24.17;17.73;;;11.40;99.90;;;;;;5080907;28;20023;-85
2021/10/12 06:43:47;;;;;;;25.63;17.92;;;11.30;99.90;;;;;;5070384;28;20025;-85
2021/10/12 06:46:14;;;;;;;25.50;17.98;;;11.30;99.90;;;;;;5086581;28;20365;-85
2021/10/12 06:48:39;;;;;;;23.77;17.77;;;11.40;99.90;;;;;;5091716;28;20064;-85
2021/10/12 06:51:05;;;;;;;25.92;18.38;;;11.30;99.90;;;;;;5073790;28;20075;-85
2021/10/12 06:53:30;;;;;;;22.48;17.50;;;11.80;99.90;;;;;;5076696;28;20032;-85
2021/10/12 06:55:56;;;;;;;23.80;17.67;;;11.50;99.90;;;;;;5078222;28;20051;-85
2021/10/12 06:58:22;;;;;;;24.08;17.50;;;11.30;99.90;;;;;;5073890;28;20025;-84
2021/10/12 07:00:47;;;;;;;26.88;18.60;;;11.40;99.90;;;;;;5096358;28;20104;-86
2021/10/12 07:03:13;;;;;;;23.80;18.40;;;11.40;99.90;;;;;;5076536;28;20078;-85
2021/10/12 07:05:38;;;;;;;29.75;19.27;;;11.30;99.90;;;;;;5078938;28;20025;-85
2021/10/12 07:08:04;;;;;;;25.77;18.25;;;11.30;99.90;;;;;;5076239;28;20038;-85
2021/10/12 07:10:30;;;;;;;26.55;18.65;;;11.30;99.90;;;;;;5074132;28;20032;-86
2021/10/12 07:12:56;;;;;;;23.75;18.23;;;11.30;99.90;;;;;;5093557;28;20051;-85
2021/10/12 07:15:21;;;;;;;30.15;19.92;;;11.20;99.90;;;;;;5075954;28;20033;-85
2021/10/12 07:17:47;;;;;;;25.40;18.00;;;11.20;99.90;;;;;;5082114;28;20031;-88
2021/10/12 07:20:12;;;;;;;28.58;19.52;;;11.40;99.90;;;;;;5087224;28;20032;-85
2021/10/12 07:22:39;;;;;;;29.42;19.75;;;11.20;99.90;;;;;;5075253;28;21951;-84
2021/10/12 07:25:06;;;;;;;27.50;19.13;;;11.50;99.90;;;;;;5073365;28;20021;-83
2021/10/12 07:27:32;;;;;;;25.67;18.27;;;11.40;99.90;;;;;;5078953;28;20388;-82
2021/10/12 07:29:58;;;;;;;30.33;20.35;;;11.50;99.90;;;;;;5077041;28;20041;-85
2021/10/12 07:32:24;;;;;;;26.17;19.25;;;11.40;99.90;;;;;;5075028;28;20609;-85
2021/10/12 07:34:49;;;;;;;26.42;19.50;;;11.60;99.90;;;;;;5075870;28;20058;-85
2021/10/12 07:37:15;;;;;;;28.30;20.13;;;11.60;99.90;;;;;;5072047;28;20469;-85
2021/10/12 07:39:41;;;;;;;27.45;19.33;;;11.40;99.90;;;;;;5078726;28;20021;-85
2021/10/12 07:42:09;;;;;;;27.00;19.48;;;11.30;99.90;;;;;;5076529;28;20511;-85
2021/10/12 07:44:37;;;;;;;26.75;18.52;;;11.20;99.90;;;;;;5076912;28;20024;-85
2021/10/12 07:47:03;;;;;;;26.35;17.92;;;11.60;99.90;;;;;;5076657;28;20024;-85
2021/10/12 07:49:29;;;;;;;25.38;18.85;;;11.40;99.90;;;;;;5073948;28;20102;-85
2021/10/12 07:51:54;;;;;;;27.00;18.38;;;12.00;99.90;;;;;;5076579;28;20056;-85
2021/10/12 07:54:27;;;;;;;24.17;16.45;;;11.50;99.90;;;;;;5077354;28;20032;-85
2021/10/12 07:56:52;;;;;;;25.52;17.73;;;11.60;99.90;;;;;;5076358;28;20043;-85
2021/10/12 07:59:18;;;;;;;23.98;17.52;;;11.60;99.90;;;;;;5075620;28;20040;-85
2021/10/12 08:01:45;;;;;;;24.05;17.08;;;11.60;99.90;;;;;;5075894;28;20031;-85
2021/10/12 08:04:11;;;;;;;21.73;16.77;;;11.50;99.90;;;;;;5072617;28;20028;-85
2021/10/12 08:06:37;;;;;;;24.40;18.35;;;11.60;99.90;;;;;;5110652;27;20052;-85
2021/10/12 08:09:02;;;;;;;25.75;17.48;;;11.50;99.90;;;;;;5076115;28;20076;-85
2021/10/12 08:11:28;;;;;;;23.67;16.60;;;11.50;99.90;;;;;;5075230;28;20082;-85
2021/10/12 08:14:05;;;;;;;22.90;17.38;;;11.60;99.90;;;;;;5075062;28;20472;-85
2021/10/12 08:16:31;;;;;;;22.90;16.27;;;11.80;99.90;;;;;;5073595;28;20074;-85
2021/10/12 08:19:02;;;;;;;20.48;15.82;;;11.80;99.90;;;;;;5075023;28;20439;-85
2021/10/12 08:21:29;;;;;;;24.48;16.95;;;12.40;99.90;;;;;;5075673;28;20037;-85
2021/10/12 08:23:57;;;;;;;21.85;15.45;;;12.00;99.90;;;;;;5076594;28;20508;-85
2021/10/12 08:26:23;;;;;;;22.35;16.23;;;11.90;99.90;;;;;;5074213;28;20082;-85
2021/10/12 08:28:49;;;;;;;23.65;16.42;;;11.60;99.90;;;;;;5075894;28;20032;-85
2021/10/12 08:31:15;;;;;;;23.17;16.33;;;11.60;99.90;;;;;;5071681;28;20432;-85
2021/10/12 08:33:41;;;;;;;22.80;15.13;;;11.70;99.90;;;;;;5077554;28;20095;-85
2021/10/12 08:36:07;;;;;;;22.45;16.20;;;11.80;99.90;;;;;;5075617;28;20028;-85
2021/10/12 08:38:34;;;;;;;22.90;16.35;;;12.40;99.90;;;;;;5075572;28;20155;-88
2021/10/12 08:41:05;;;;;;;23.35;15.95;;;12.10;99.90;;;;;;5075724;28;20067;-84
2021/10/12 08:43:32;;;;;;;22.27;15.70;;;12.00;99.90;;;;;;5072888;28;20492;-84
2021/10/12 08:45:59;;;;;;;21.20;15.98;;;11.90;99.90;;;;;;5074739;28;20447;-83
2021/10/12 08:48:27;;;;;;;22.33;15.38;;;12.20;99.90;;;;;;5076847;28;20040;-85
2021/10/12 08:50:52;;;;;;;21.55;16.27;;;12.40;99.90;;;;;;5073887;28;20021;-85
2021/10/12 08:53:18;;;;;;;21.25;15.52;;;12.30;99.90;;;;;;5073939;28;20070;-85
2021/10/12 08:55:44;;;;;;;19.88;14.35;;;12.40;99.90;;;;;;5074762;28;20476;-85
2021/10/12 08:58:11;;;;;;;23.38;16.08;;;12.70;99.90;;;;;;5071831;28;20040;-83
2021/10/12 09:00:37;;;;;;;20.65;15.40;;;13.10;99.90;;;;;;5077407;28;20389;-85
2021/10/12 09:05:52;;;;;;;16.85;13.40;;;12.90;99.90;;;;;;5075472;28;20025;-85
2021/10/12 09:08:29;;;;;;;20.15;14.35;;;13.60;99.90;;;;;;5074834;28;20024;-86
2021/10/12 09:10:56;;;;;;;20.33;14.82;;;13.40;99.90;;;;;;5071247;28;20059;-85
2021/10/12 09:13:22;;;;;;;18.48;13.90;;;13.40;99.90;;;;;;5087494;28;20040;-86
2021/10/12 09:16:09;;;;;;;18.27;13.20;;;13.20;99.90;;;;;;5075726;28;20094;-85
2021/10/12 09:18:55;;;;;;;17.23;13.32;;;13.20;99.90;;;;;;5073894;28;20033;-83
2021/10/12 09:21:21;;;;;;;17.88;13.63;;;13.10;99.90;;;;;;5075756;28;20079;-83
2021/10/12 09:23:48;;;;;;;15.35;12.55;;;13.70;99.90;;;;;;5074995;28;20527;-84
2021/10/12 09:26:26;;;;;;;17.77;13.70;;;13.60;99.90;;;;;;5075320;28;20496;-84
2021/10/12 09:29:30;;;;;;;19.40;14.15;;;13.60;99.90;;;;;;5073335;28;20496;-83
2021/10/12 09:31:57;;;;;;;18.27;14.27;;;13.70;99.90;;;;;;5072961;28;20032;-86
2021/10/12 09:34:25;;;;;;;16.48;12.93;;;14.20;99.90;;;;;;5071389;28;20102;-85
2021/10/12 09:36:52;;;;;;;20.02;13.90;;;17.70;99.90;;;;;;5075346;28;20028;-85
2021/10/12 09:39:34;;;;;;;20.27;14.55;;;15.90;99.90;;;;;;5073874;28;20024;-85
2021/10/12 09:42:09;;;;;;;17.65;13.40;;;15.30;99.90;;;;;;5074610;28;20077;-86
2021/10/12 09:44:36;;;;;;;17.73;13.60;;;14.90;99.90;;;;;;5074992;28;20024;-85
2021/10/12 09:47:14;;;;;;;18.60;12.77;;;15.00;99.90;;;;;;5074051;28;20038;-86
2021/10/12 09:49:40;;;;;;;18.33;13.20;;;14.80;99.90;;;;;;5073340;28;20068;-85
2021/10/12 09:52:13;;;;;;;16.30;13.48;;;16.20;99.90;;;;;;5071586;28;20081;-85
2021/10/12 09:54:57;;;;;;;18.67;14.15;;;15.80;99.90;;;;;;5076968;28;20062;-88
2021/10/12 09:57:28;;;;;;;17.23;13.90;;;15.30;99.90;;;;;;5075892;28;20369;-89
2021/10/12 09:59:54;;;;;;;18.73;13.55;;;16.40;99.90;;;;;;5073224;28;20033;-87
2021/10/12 10:02:21;;;;;;;19.25;12.43;;;20.30;99.90;;;;;;5074662;28;20028;-86
2021/10/12 10:04:48;;;;;;;14.07;11.55;;;23.00;99.90;;;;;;5074932;28;20556;-91
2021/10/12 10:07:17;;;;;;;14.85;12.30;;;27.70;99.90;;;;;;5102350;27;20111;-87
2021/10/12 10:09:44;;;;;;;17.85;12.57;;;30.60;99.90;;;;;;5076947;28;20040;-91
2021/10/12 10:12:11;;;;;;;15.80;12.45;;;29.20;99.90;;;;;;5076530;28;20024;-88
2021/10/12 10:14:37;;;;;;;14.32;12.23;;;27.90;99.90;;;;;;5077906;28;20055;-87
2021/10/12 10:17:04;;;;;;;15.15;12.70;;;28.30;99.90;;;;;;5073884;28;20117;-87
2021/10/12 10:19:36;;;;;;;15.88;13.02;;;31.20;99.90;;;;;;5070189;28;20021;-87
2021/10/12 10:22:03;;;;;;;15.70;13.20;;;29.00;99.90;;;;;;5075798;28;20024;-87
2021/10/12 10:24:41;;;;;;;15.73;13.25;;;25.40;99.90;;;;;;5084157;28;20056;-86
2021/10/12 10:27:27;;;;;;;14.23;12.73;;;26.30;99.90;;;;;;5071504;28;20121;-86
2021/10/12 10:30:19;;;;;;;14.65;13.10;;;23.10;99.90;;;;;;5074048;28;20581;-87
2021/10/12 10:32:56;;;;;;;16.33;14.25;;;20.70;99.90;;;;;;5070922;28;20020;-87
2021/10/12 10:35:33;;;;;;;15.88;13.93;;;19.50;99.90;;;;;;5075561;28;20119;-91
2021/10/12 10:38:21;;;;;;;15.63;13.60;;;19.10;99.90;;;;;;5075078;28;20396;-92
2021/10/12 10:40:49;;;;;;;18.17;14.18;;;19.00;99.90;;;;;;5073124;28;20078;-91
2021/10/12 10:43:15;;;;;;;16.02;13.68;;;18.90;99.90;;;;;;5069970;28;20029;-86
2021/10/12 10:45:50;;;;;;;15.35;13.30;;;18.60;99.90;;;;;;5075878;28;20123;-86
2021/10/12 10:48:18;;;;;;;16.55;13.68;;;18.40;99.90;;;;;;5073028;28;20028;-87
2021/10/12 10:50:44;;;;;;;17.33;13.85;;;18.20;99.90;;;;;;5071612;28;20028;-88
2021/10/12 10:53:11;;;;;;;18.08;13.60;;;19.10;99.90;;;;;;5073493;28;20024;-86
2021/10/12 10:55:43;;;;;;;17.13;13.15;;;18.90;99.90;;;;;;5071510;28;20028;-89
2021/10/12 10:58:19;;;;;;;18.85;14.45;;;19.00;99.90;;;;;;5070224;28;20029;-88
2021/10/12 11:00:50;;;;;;;16.98;13.85;;;18.10;99.90;;;;;;5075034;28;20503;-87
2021/10/12 11:03:32;;;;;;;16.95;13.88;;;18.60;99.90;;;;;;5072790;28;20151;-85
2021/10/12 11:06:14;;;;;;;17.95;14.00;;;22.10;99.90;;;;;;5073451;28;20050;-90
2021/10/12 11:08:58;;;;;;;19.48;14.57;;;23.70;99.90;;;;;;5072347;28;20438;-87
2021/10/12 11:11:24;;;;;;;17.77;14.10;;;21.60;99.90;;;;;;5074081;28;20021;-86
2021/10/12 11:13:51;;;;;;;18.30;14.23;;;20.50;99.90;;;;;;5073755;28;20133;-87
2021/10/12 11:16:17;;;;;;;17.90;14.70;;;19.30;99.90;;;;;;5052526;28;20032;-87
2021/10/12 11:18:45;;;;;;;16.95;13.95;;;19.00;99.90;;;;;;5076317;28;20037;-87
2021/10/12 11:21:16;;;;;;;20.30;13.98;;;19.30;99.90;;;;;;5073720;28;20033;-87
2021/10/12 11:23:48;;;;;;;16.67;13.30;;;18.90;99.90;;;;;;5072244;28;20078;-87
2021/10/12 11:26:19;;;;;;;17.25;13.18;;;17.90;99.90;;;;;;5070636;28;20024;-87
2021/10/12 11:28:53;;;;;;;16.95;12.32;;;18.90;99.90;;;;;;5069371;28;20028;-87
2021/10/12 11:31:22;;;;;;;17.88;12.65;;;26.10;99.90;;;;;;5054008;28;20033;-87
2021/10/12 11:33:50;;;;;;;14.35;10.57;;;29.70;99.90;;;;;;5075662;28;20044;-87
2021/10/12 11:36:33;;;;;;;14.73;12.02;;;27.00;99.90;;;;;;5073868;28;20134;-87
2021/10/12 11:39:05;;;;;;;15.07;13.00;;;24.10;99.90;;;;;;5075646;28;20109;-87
2021/10/12 11:41:36;;;;;;;16.58;13.00;;;21.10;99.90;;;;;;5075521;28;20036;-87
2021/10/12 11:44:18;;;;;;;13.68;12.23;;;20.60;99.90;;;;;;5076851;28;20055;-87
2021/10/12 11:46:46;;;;;;;15.95;11.88;;;24.60;99.90;;;;;;5076340;28;20103;-87
2021/10/12 11:49:14;;;;;;;14.75;12.07;;;26.10;99.90;;;;;;5073551;28;20032;-87
2021/10/12 11:51:41;;;;;;;16.02;11.55;;;23.00;99.90;;;;;;5079380;28;20025;-86
2021/10/12 11:54:07;;;;;;;13.32;11.18;;;23.40;99.90;;;;;;5076797;28;20111;-87
2021/10/12 11:56:35;;;;;;;13.43;10.75;;;27.40;99.90;;;;;;5076334;28;20031;-86
2021/10/12 11:59:06;;;;;;;12.30;10.07;;;24.80;99.90;;;;;;5076196;28;20118;-87
2021/10/12 12:01:35;;;;;;;14.07;10.80;;;23.60;99.90;;;;;;5073846;28;20527;-87
2021/10/12 12:04:04;;;;;;;11.70;10.40;;;23.50;99.90;;;;;;5075173;28;20020;-87
2021/10/12 12:06:32;;;;;;;12.70;9.88;;;25.90;99.90;;;;;;5076433;28;20031;-87
2021/10/12 12:09:01;;;;;;;12.15;9.55;;;27.30;99.90;;;;;;5075459;28;20083;-86
2021/10/12 12:11:29;;;;;;;12.32;9.60;;;26.70;99.90;;;;;;5074640;28;20554;-86
2021/10/12 12:13:56;;;;;;;10.90;9.18;;;24.20;99.90;;;;;;5076206;28;20024;-86
2021/10/12 12:16:24;;;;;;;12.63;9.63;;;22.60;99.90;;;;;;5072470;28;20371;-87
2021/10/12 12:18:51;;;;;;;14.00;9.60;;;23.70;99.90;;;;;;5077320;28;20565;-87
2021/10/12 12:21:32;;;;;;;11.95;8.55;;;23.90;99.90;;;;;;5076143;28;20052;-87
2021/10/12 12:24:02;;;;;;;13.43;8.75;;;23.80;99.90;;;;;;5076836;28;20044;-87
2021/10/12 12:26:32;;;;;;;10.55;8.75;;;27.10;99.90;;;;;;5076152;28;20028;-86
2021/10/12 12:29:20;;;;;;;12.27;9.32;;;28.60;99.90;;;;;;5075784;28;20076;-87
2021/10/12 12:31:51;;;;;;;12.18;8.23;;;28.70;99.90;;;;;;5075661;28;20024;-87
2021/10/12 12:34:35;;;;;;;11.10;8.18;;;27.80;99.90;;;;;;5055282;28;20562;-87